createdAt,value
2019-05-05T00:02:01.954Z,0.90
2019-05-05T00:04:48.498Z,0.70
2019-05-05T00:07:21.340Z,0.70
2019-05-05T00:09:49.974Z,0.60
2019-05-05T00:12:36.243Z,0.80
2019-05-05T00:15:18.992Z,0.63
2019-05-05T00:17:47.743Z,0.60
2019-05-05T00:20:16.387Z,0.60
2019-05-05T00:22:45.548Z,0.70
2019-05-05T00:25:14.440Z,0.70
2019-05-05T00:27:45.131Z,0.80
2019-05-05T00:30:14.405Z,0.80
2019-05-05T00:32:44.307Z,0.60
2019-05-05T00:35:14.873Z,0.63
2019-05-05T00:37:45.047Z,0.70
2019-05-05T00:40:14.253Z,0.90
2019-05-05T00:42:43.051Z,0.77
2019-05-05T00:45:11.984Z,0.73
2019-05-05T00:47:49.117Z,0.70
2019-05-05T00:50:19.888Z,0.80
2019-05-05T00:52:48.553Z,0.80
2019-05-05T00:55:18.176Z,0.90
2019-05-05T00:57:46.828Z,0.83
2019-05-05T01:00:27.516Z,0.63
2019-05-05T01:02:56.203Z,0.80
2019-05-05T01:05:40.823Z,0.70
2019-05-05T01:08:14.669Z,1.13
2019-05-05T01:10:44.314Z,0.70
2019-05-05T01:13:15.084Z,0.90
2019-05-05T01:15:44.874Z,0.70
2019-05-05T01:18:15.202Z,0.70
2019-05-05T01:20:44.838Z,0.90
2019-05-05T01:23:15.000Z,0.80
2019-05-05T01:25:46.121Z,0.93
2019-05-05T01:28:14.447Z,0.70
2019-05-05T01:30:45.070Z,1.00
2019-05-05T01:33:25.039Z,0.90
2019-05-05T01:35:55.229Z,0.90
2019-05-05T01:38:31.606Z,1.00
2019-05-05T01:41:09.733Z,0.67
2019-05-05T01:43:38.398Z,0.93
2019-05-05T01:46:07.053Z,1.00
2019-05-05T01:48:35.726Z,1.23
2019-05-05T01:51:04.983Z,0.93
2019-05-05T01:53:35.089Z,1.20
2019-05-05T01:56:04.980Z,0.90
2019-05-05T01:58:34.887Z,0.97
2019-05-05T02:01:04.996Z,1.47
2019-05-05T02:03:34.970Z,0.90
2019-05-05T02:06:05.266Z,1.20
2019-05-05T02:08:35.061Z,0.87
2019-05-05T02:11:05.165Z,1.07
2019-05-05T02:13:34.670Z,1.30
2019-05-05T02:16:04.704Z,1.10
2019-05-05T02:18:34.594Z,1.30
2019-05-05T02:21:05.326Z,1.10
2019-05-05T02:23:35.293Z,1.17
2019-05-05T02:26:05.192Z,1.30
2019-05-05T02:28:40.100Z,1.00
2019-05-05T02:31:36.095Z,1.27
2019-05-05T02:34:05.470Z,1.20
2019-05-05T02:36:35.480Z,1.10
2019-05-05T02:39:05.852Z,1.20
2019-05-05T02:41:34.853Z,1.40
2019-05-05T02:44:05.036Z,1.30
2019-05-05T02:46:40.020Z,1.30
2019-05-05T02:49:08.686Z,1.50
2019-05-05T02:51:37.399Z,1.20
2019-05-05T02:54:06.104Z,1.30
2019-05-05T02:56:43.628Z,1.70
2019-05-05T02:59:17.169Z,1.40
2019-05-05T03:01:55.051Z,1.40
2019-05-05T03:04:24.424Z,1.70
2019-05-05T03:06:54.667Z,1.40
2019-05-05T03:09:24.342Z,1.50
2019-05-05T03:11:54.097Z,1.50
2019-05-05T03:14:23.712Z,1.53
2019-05-05T03:16:54.141Z,1.80
2019-05-05T03:19:24.130Z,1.60
2019-05-05T03:21:54.545Z,1.53
2019-05-05T03:24:23.671Z,1.70
2019-05-05T03:26:53.694Z,2.00
2019-05-05T03:29:24.329Z,1.30
2019-05-05T03:31:55.912Z,1.87
2019-05-05T03:34:24.096Z,1.40
2019-05-05T03:36:53.614Z,1.73
2019-05-05T03:39:27.195Z,1.63
2019-05-05T03:42:14.940Z,1.93
2019-05-05T03:44:54.497Z,1.90
2019-05-05T03:47:24.154Z,1.80
2019-05-05T03:49:53.598Z,1.80
2019-05-05T03:52:24.414Z,1.43
2019-05-05T03:54:54.180Z,1.97
2019-05-05T03:57:24.577Z,2.23
2019-05-05T03:59:54.743Z,1.60
2019-05-05T04:02:45.848Z,1.53
2019-05-05T04:05:40.044Z,2.03
2019-05-05T04:08:08.790Z,1.60
2019-05-05T04:10:37.733Z,1.67
2019-05-05T04:13:06.386Z,1.20
2019-05-05T04:15:36.769Z,1.43
2019-05-05T04:18:14.571Z,1.57
2019-05-05T04:20:44.379Z,1.73
2019-05-05T04:23:14.182Z,1.60
2019-05-05T04:25:43.943Z,1.63
2019-05-05T04:28:13.636Z,1.50
2019-05-05T04:30:44.471Z,1.50
2019-05-05T04:33:14.192Z,1.60
2019-05-05T04:35:44.454Z,1.40
2019-05-05T04:38:14.040Z,1.67
2019-05-05T04:40:43.629Z,1.70
2019-05-05T04:43:14.320Z,1.43
2019-05-05T04:45:43.626Z,1.73
2019-05-05T04:48:17.241Z,1.63
2019-05-05T04:51:17.198Z,1.60
2019-05-05T04:54:03.985Z,1.70
2019-05-05T04:56:34.292Z,1.60
2019-05-05T04:59:04.632Z,1.53
2019-05-05T05:01:34.219Z,1.53
2019-05-05T05:04:28.859Z,1.90
2019-05-05T05:06:58.111Z,1.80
2019-05-05T05:09:26.770Z,1.63
2019-05-05T05:11:55.497Z,1.50
2019-05-05T05:14:24.813Z,1.60
2019-05-05T05:16:56.150Z,1.60
2019-05-05T05:19:24.856Z,1.70
2019-05-05T05:22:01.638Z,1.40
2019-05-05T05:24:23.910Z,1.47
2019-05-05T05:26:52.549Z,1.70
2019-05-05T05:29:21.203Z,1.57
2019-05-05T05:31:49.875Z,1.60
2019-05-05T05:34:18.574Z,1.90
2019-05-05T05:36:47.263Z,1.40
2019-05-05T05:39:26.170Z,1.50
2019-05-05T05:41:54.825Z,1.63
2019-05-05T05:44:53.423Z,1.67
2019-05-05T05:47:27.490Z,1.80
2019-05-05T05:50:27.539Z,1.70
2019-05-05T05:52:56.252Z,1.53
2019-05-05T05:55:24.914Z,1.37
2019-05-05T05:57:54.173Z,1.60
2019-05-05T06:00:23.827Z,1.30
2019-05-05T06:02:54.402Z,1.67
2019-05-05T06:05:23.827Z,1.43
2019-05-05T06:07:54.455Z,1.60
2019-05-05T06:10:26.655Z,1.53
2019-05-05T06:12:54.697Z,1.50
2019-05-05T06:15:24.448Z,1.27
2019-05-05T06:17:53.993Z,1.43
2019-05-05T06:20:23.864Z,1.83
2019-05-05T06:22:53.559Z,1.80
2019-05-05T06:25:26.229Z,1.70
2019-05-05T06:27:53.999Z,1.80
2019-05-05T06:30:24.374Z,1.60
2019-05-05T06:32:54.435Z,1.60
2019-05-05T06:35:24.492Z,1.50
2019-05-05T06:37:54.488Z,1.70
2019-05-05T06:40:30.865Z,1.47
2019-05-05T06:43:09.312Z,1.90
2019-05-05T06:45:44.352Z,1.53
2019-05-05T06:48:13.632Z,1.50
2019-05-05T06:50:43.794Z,1.50
2019-05-05T06:53:13.554Z,1.60
2019-05-05T06:55:44.417Z,1.53
2019-05-05T06:58:13.737Z,1.93
2019-05-05T07:00:44.121Z,1.90
2019-05-05T07:03:33.670Z,1.90
2019-05-05T07:06:04.230Z,1.60
2019-05-05T07:08:34.781Z,1.43
2019-05-05T07:11:04.166Z,1.90
2019-05-05T07:13:34.030Z,1.77
2019-05-05T07:16:04.794Z,1.60
2019-05-05T07:18:34.209Z,1.60
2019-05-05T07:21:03.806Z,1.70
2019-05-05T07:23:34.280Z,1.87
2019-05-05T07:26:04.122Z,2.20
2019-05-05T07:28:34.256Z,1.87
2019-05-05T07:31:04.528Z,1.60
2019-05-05T07:33:34.583Z,1.90
2019-05-05T07:36:21.480Z,1.70
2019-05-05T07:38:50.167Z,1.90
2019-05-05T07:41:18.828Z,1.60
2019-05-05T07:43:47.474Z,2.00
2019-05-05T07:46:16.175Z,2.17
2019-05-05T07:48:44.816Z,2.17
2019-05-05T07:51:14.140Z,2.10
2019-05-05T07:53:44.287Z,1.80
2019-05-05T07:56:14.454Z,1.70
2019-05-05T07:58:43.987Z,1.67
2019-05-05T08:01:14.169Z,2.13
2019-05-05T08:03:44.604Z,1.90
2019-05-05T08:06:14.504Z,1.80
2019-05-05T08:08:44.487Z,1.70
2019-05-05T08:11:14.697Z,2.17
2019-05-05T08:13:44.283Z,2.10
2019-05-05T08:16:33.675Z,1.80
2019-05-05T08:19:15.028Z,1.97
2019-05-05T08:21:43.825Z,2.67
2019-05-05T08:24:25.999Z,2.17
2019-05-05T08:27:14.452Z,2.00
2019-05-05T08:29:48.087Z,1.87
2019-05-05T08:32:25.654Z,2.03
2019-05-05T08:35:00.407Z,2.23
2019-05-05T08:37:24.704Z,1.90
2019-05-05T08:39:54.040Z,1.80
2019-05-05T08:42:24.671Z,1.70
2019-05-05T08:44:53.990Z,2.00
2019-05-05T08:47:24.605Z,1.80
2019-05-05T08:49:53.841Z,1.83
2019-05-05T08:52:23.815Z,1.73
2019-05-05T08:54:54.119Z,1.90
2019-05-05T08:57:23.673Z,1.97
2019-05-05T08:59:54.466Z,1.97
2019-05-05T09:02:23.893Z,1.87
2019-05-05T09:04:53.758Z,1.83
2019-05-05T09:07:24.285Z,1.73
2019-05-05T09:09:54.617Z,1.90
2019-05-05T09:12:23.646Z,1.93
2019-05-05T09:14:53.915Z,2.27
2019-05-05T09:17:24.393Z,1.83
2019-05-05T09:19:53.692Z,1.93
2019-05-05T09:22:24.564Z,2.10
2019-05-05T09:25:15.200Z,2.03
2019-05-05T09:27:50.191Z,1.90
2019-05-05T09:30:33.937Z,2.07
2019-05-05T09:33:03.600Z,1.80
2019-05-05T09:35:34.234Z,1.83
2019-05-05T09:38:04.031Z,2.00
2019-05-05T09:40:40.139Z,1.87
2019-05-05T09:43:09.569Z,2.00
2019-05-05T09:45:38.382Z,1.73
2019-05-05T09:48:07.029Z,2.20
2019-05-05T09:50:35.699Z,2.20
2019-05-05T09:53:04.382Z,1.87
2019-05-05T09:55:33.548Z,2.10
2019-05-05T09:58:04.451Z,2.13
2019-05-05T10:00:35.594Z,2.13
2019-05-05T10:03:04.265Z,2.57
2019-05-05T10:05:34.207Z,2.10
2019-05-05T10:08:03.666Z,1.90
2019-05-05T10:10:33.811Z,2.27
2019-05-05T10:13:04.200Z,2.17
2019-05-05T10:15:33.376Z,1.77
2019-05-05T10:18:03.506Z,2.40
2019-05-05T10:20:34.239Z,1.77
2019-05-05T10:23:02.827Z,1.80
2019-05-05T10:25:44.964Z,2.33
2019-05-05T10:28:13.681Z,1.80
2019-05-05T10:30:42.530Z,1.97
2019-05-05T10:33:11.239Z,2.10
2019-05-05T10:35:39.911Z,2.00
2019-05-05T10:38:08.607Z,2.30
2019-05-05T10:40:37.256Z,2.63
2019-05-05T10:43:05.941Z,2.50
2019-05-05T10:45:34.694Z,2.60
2019-05-05T10:48:04.055Z,2.63
2019-05-05T10:50:34.153Z,2.10
2019-05-05T10:53:04.541Z,2.67
2019-05-05T10:55:34.621Z,2.57
2019-05-05T10:58:03.854Z,2.30
2019-05-05T11:00:47.468Z,2.10
2019-05-05T11:03:16.322Z,2.80
2019-05-05T11:05:45.262Z,1.97
2019-05-05T11:08:14.234Z,2.30
2019-05-05T11:10:44.973Z,2.43
2019-05-05T11:13:13.573Z,2.10
2019-05-05T11:15:44.357Z,2.77
2019-05-05T11:18:14.784Z,1.90
2019-05-05T11:20:44.710Z,2.50
2019-05-05T11:23:14.877Z,2.50
2019-05-05T11:25:44.417Z,2.53
2019-05-05T11:28:13.770Z,2.10
2019-05-05T11:30:43.956Z,2.10
2019-05-05T11:33:40.769Z,2.10
2019-05-05T11:36:14.126Z,2.30
2019-05-05T11:38:44.612Z,2.33
2019-05-05T11:41:14.374Z,2.10
2019-05-05T11:43:43.306Z,2.57
2019-05-05T11:46:13.949Z,2.60
2019-05-05T11:48:43.904Z,2.73
2019-05-05T11:51:14.907Z,1.87
2019-05-05T11:53:44.641Z,2.37
2019-05-05T11:56:14.457Z,2.50
2019-05-05T11:58:44.257Z,2.60
2019-05-05T12:01:13.940Z,2.50
2019-05-05T12:03:44.364Z,2.20
2019-05-05T12:06:14.722Z,2.00
2019-05-05T12:08:45.949Z,2.47
2019-05-05T12:11:15.216Z,2.10
2019-05-05T12:13:44.712Z,2.63
2019-05-05T12:16:15.035Z,2.10
2019-05-05T12:18:44.833Z,1.90
2019-05-05T12:21:14.191Z,2.33
2019-05-05T12:23:44.366Z,2.23
2019-05-05T12:26:43.660Z,2.50
2019-05-05T12:29:15.676Z,2.80
2019-05-05T12:31:46.848Z,2.30
2019-05-05T12:34:15.516Z,2.40
2019-05-05T12:36:44.630Z,2.10
2019-05-05T12:39:16.432Z,2.40
2019-05-05T12:41:45.095Z,2.40
2019-05-05T12:44:28.063Z,2.07
2019-05-05T12:47:18.664Z,2.30
2019-05-05T12:49:47.360Z,2.43
2019-05-05T12:52:16.033Z,2.30
2019-05-05T12:54:44.705Z,2.40
2019-05-05T12:57:13.754Z,2.53
2019-05-05T12:59:44.437Z,2.57
2019-05-05T13:02:14.299Z,2.10
2019-05-05T13:04:43.744Z,2.40
2019-05-05T13:07:13.630Z,2.20
2019-05-05T13:09:44.059Z,2.37
2019-05-05T13:12:15.008Z,2.10
2019-05-05T13:14:43.953Z,2.50
2019-05-05T13:17:14.211Z,2.33
2019-05-05T13:19:55.495Z,2.27
2019-05-05T13:22:38.945Z,2.40
2019-05-05T13:25:29.727Z,2.37
2019-05-05T13:27:58.391Z,2.20
2019-05-05T13:30:27.052Z,2.30
2019-05-05T13:32:55.731Z,2.20
2019-05-05T13:35:24.483Z,2.10
2019-05-05T13:37:54.925Z,2.03
2019-05-05T13:40:24.032Z,2.13
2019-05-05T13:42:54.693Z,1.93
2019-05-05T13:45:34.197Z,1.77
2019-05-05T13:48:03.515Z,2.40
2019-05-05T13:50:36.713Z,2.10
2019-05-05T13:53:05.408Z,2.60
2019-05-05T13:55:34.712Z,2.07
2019-05-05T13:58:04.301Z,2.20
2019-05-05T14:00:33.779Z,2.20
2019-05-05T14:03:03.987Z,1.80
2019-05-05T14:05:34.395Z,1.90
2019-05-05T14:08:04.267Z,2.00
2019-05-05T14:10:33.753Z,1.83
2019-05-05T14:13:03.712Z,2.33
2019-05-05T14:15:34.131Z,1.83
2019-05-05T14:18:03.824Z,1.70
2019-05-05T14:20:34.472Z,1.90
2019-05-05T14:23:04.083Z,2.10
2019-05-05T14:25:32.838Z,1.77
2019-05-05T14:28:03.526Z,1.80
2019-05-05T14:30:50.021Z,1.80
2019-05-05T14:33:23.717Z,2.00
2019-05-05T14:35:59.044Z,2.43
2019-05-05T14:38:53.899Z,2.03
2019-05-05T14:41:22.767Z,2.20
2019-05-05T14:43:53.812Z,1.90
2019-05-05T14:46:23.510Z,2.30
2019-05-05T14:48:53.513Z,1.83
2019-05-05T14:51:22.328Z,2.03
2019-05-05T14:53:50.992Z,1.97
2019-05-05T14:56:19.677Z,1.87
2019-05-05T14:58:48.328Z,1.80
2019-05-05T15:01:17.004Z,2.00
2019-05-05T15:03:45.700Z,1.37
2019-05-05T15:06:24.028Z,2.03
2019-05-05T15:09:06.296Z,1.90
2019-05-05T15:11:48.800Z,2.00
2019-05-05T15:14:17.488Z,1.60
2019-05-05T15:16:46.174Z,1.90
2019-05-05T15:19:14.827Z,1.83
2019-05-05T15:21:44.287Z,2.07
2019-05-05T15:24:13.843Z,1.80
2019-05-05T15:26:51.988Z,2.00
2019-05-05T15:29:13.816Z,1.80
2019-05-05T15:31:43.549Z,1.63
2019-05-05T15:34:13.183Z,1.70
2019-05-05T15:36:43.859Z,1.80
2019-05-05T15:39:13.839Z,1.70
2019-05-05T15:41:44.511Z,1.83
2019-05-05T15:44:13.531Z,2.13
2019-05-05T15:46:44.155Z,1.73
2019-05-05T15:49:13.365Z,2.00
2019-05-05T15:51:44.181Z,2.07
2019-05-05T15:54:14.074Z,2.20
2019-05-05T15:56:43.065Z,1.87
2019-05-05T15:59:11.751Z,1.47
2019-05-05T16:01:40.424Z,2.03
2019-05-05T16:04:09.136Z,1.73
2019-05-05T16:06:37.802Z,1.60
2019-05-05T16:09:07.292Z,2.17
2019-05-05T16:11:36.014Z,2.00
2019-05-05T16:14:04.657Z,1.93
2019-05-05T16:16:55.607Z,2.20
2019-05-05T16:19:40.602Z,2.00
2019-05-05T16:22:14.176Z,2.30
2019-05-05T16:24:44.640Z,1.90
2019-05-05T16:27:21.597Z,2.10
2019-05-05T16:29:44.186Z,1.77
2019-05-05T16:32:21.633Z,2.47
2019-05-05T16:34:44.147Z,2.37
2019-05-05T16:37:14.318Z,2.10
2019-05-05T16:39:43.957Z,2.10
2019-05-05T16:42:15.068Z,1.90
2019-05-05T16:44:43.409Z,2.00
2019-05-05T16:47:13.600Z,1.90
2019-05-05T16:49:44.490Z,2.17
2019-05-05T16:52:20.777Z,1.90
2019-05-05T16:55:04.536Z,2.23
2019-05-05T16:57:36.621Z,2.30
2019-05-05T17:00:05.499Z,1.80
2019-05-05T17:02:35.910Z,2.00
2019-05-05T17:05:05.118Z,1.93
2019-05-05T17:07:34.325Z,2.07
2019-05-05T17:10:06.305Z,1.90
2019-05-05T17:12:34.888Z,2.00
2019-05-05T17:15:38.044Z,2.23
2019-05-05T17:18:35.367Z,2.10
2019-05-05T17:21:04.078Z,1.70
2019-05-05T17:23:34.141Z,1.90
2019-05-05T17:26:02.765Z,2.27
2019-05-05T17:28:33.383Z,1.87
2019-05-05T17:31:01.835Z,1.57
2019-05-05T17:33:30.493Z,2.30
2019-05-05T17:35:59.223Z,2.00
2019-05-05T17:38:27.883Z,2.60
2019-05-05T17:41:26.422Z,1.90
2019-05-05T17:44:00.279Z,2.17
2019-05-05T17:46:44.491Z,1.80
2019-05-05T17:49:44.781Z,2.03
2019-05-05T17:52:18.476Z,1.93
2019-05-05T17:54:50.247Z,1.90
2019-05-05T17:57:18.911Z,2.10
2019-05-05T17:59:47.563Z,2.13
2019-05-05T18:02:16.251Z,1.80
2019-05-05T18:04:45.593Z,1.60
2019-05-05T18:07:34.567Z,1.70
2019-05-05T18:10:18.040Z,2.07
2019-05-05T18:13:04.651Z,1.90
2019-05-05T18:15:51.218Z,2.00
2019-05-05T18:18:20.012Z,1.93
2019-05-05T18:20:48.755Z,1.93
2019-05-05T18:23:17.422Z,2.00
2019-05-05T18:25:46.113Z,1.57
2019-05-05T18:28:19.676Z,2.00
2019-05-05T18:30:45.223Z,1.77
2019-05-05T18:33:13.991Z,1.90
2019-05-05T18:35:44.421Z,2.20
2019-05-05T18:38:13.731Z,1.63
2019-05-05T18:40:43.467Z,2.50
2019-05-05T18:43:18.399Z,2.10
2019-05-05T18:45:49.154Z,1.80
2019-05-05T18:48:37.110Z,1.70
2019-05-05T18:51:05.819Z,2.00
2019-05-05T18:53:34.484Z,2.07
2019-05-05T18:56:03.816Z,2.00
2019-05-05T18:58:34.232Z,3.10
2019-05-05T19:01:16.041Z,1.80
2019-05-05T19:04:04.068Z,1.90
2019-05-05T19:06:50.829Z,1.90
2019-05-05T19:09:21.284Z,1.70
2019-05-05T19:11:49.948Z,2.10
2019-05-05T19:14:18.692Z,1.83
2019-05-05T19:16:47.469Z,2.20
2019-05-05T19:19:16.158Z,1.70
2019-05-05T19:21:49.816Z,1.90
2019-05-05T19:24:18.483Z,1.83
2019-05-05T19:26:47.159Z,2.20
2019-05-05T19:29:15.841Z,2.73
2019-05-05T19:31:44.542Z,2.00
2019-05-05T19:34:14.554Z,2.03
2019-05-05T19:36:44.931Z,1.93
2019-05-05T19:39:14.107Z,1.73
2019-05-05T19:41:44.314Z,2.40
2019-05-05T19:44:14.702Z,2.20
2019-05-05T19:46:52.230Z,2.20
2019-05-05T19:49:20.919Z,1.80
2019-05-05T19:51:49.765Z,2.00
2019-05-05T19:54:18.434Z,1.83
2019-05-05T19:56:47.863Z,2.23
2019-05-05T19:59:16.528Z,2.63
2019-05-05T20:01:45.275Z,1.83
2019-05-05T20:04:14.639Z,2.23
2019-05-05T20:06:46.424Z,2.33
2019-05-05T20:09:15.071Z,2.40
2019-05-05T20:11:44.028Z,2.30
2019-05-05T20:14:15.148Z,2.70
2019-05-05T20:17:05.076Z,2.30
2019-05-05T20:19:37.870Z,2.30
2019-05-05T20:22:06.559Z,2.57
2019-05-05T20:24:35.255Z,2.23
2019-05-05T20:27:04.509Z,2.63
2019-05-05T20:29:37.172Z,2.60
2019-05-05T20:32:04.532Z,2.40
2019-05-05T20:34:58.506Z,2.27
2019-05-05T20:37:34.455Z,2.83
2019-05-05T20:40:04.627Z,2.47
2019-05-05T20:42:33.790Z,2.33
2019-05-05T20:45:04.188Z,2.80
2019-05-05T20:47:34.420Z,2.40
2019-05-05T20:50:04.810Z,2.43
2019-05-05T20:52:34.552Z,2.37
2019-05-05T20:55:04.783Z,2.53
2019-05-05T20:57:34.473Z,2.40
2019-05-05T21:00:03.933Z,2.77
2019-05-05T21:02:33.914Z,2.40
2019-05-05T21:05:04.065Z,2.47
2019-05-05T21:07:34.627Z,2.80
2019-05-05T21:10:04.500Z,2.70
2019-05-05T21:12:41.847Z,2.77
2019-05-05T21:15:04.882Z,2.63
2019-05-05T21:17:34.412Z,2.60
2019-05-05T21:20:04.374Z,2.60
2019-05-05T21:22:54.439Z,2.63
2019-05-05T21:25:33.752Z,2.57
2019-05-05T21:28:03.767Z,2.47
2019-05-05T21:30:33.749Z,2.50
2019-05-05T21:33:04.452Z,2.70
2019-05-05T21:35:34.854Z,3.00
2019-05-05T21:38:04.754Z,2.57
2019-05-05T21:40:34.557Z,2.70
2019-05-05T21:43:04.894Z,2.87
2019-05-05T21:45:34.814Z,2.60
2019-05-05T21:48:04.307Z,2.40
2019-05-05T21:50:39.031Z,2.30
2019-05-05T21:53:15.963Z,2.30
2019-05-05T21:56:04.178Z,2.60
2019-05-05T21:58:51.079Z,2.30
2019-05-05T22:01:26.314Z,2.50
2019-05-05T22:03:53.813Z,2.03
2019-05-05T22:06:24.112Z,1.97
2019-05-05T22:08:53.869Z,2.30
2019-05-05T22:11:24.263Z,2.00
2019-05-05T22:13:53.986Z,2.03
2019-05-05T22:16:23.495Z,2.13
2019-05-05T22:18:54.036Z,1.80
2019-05-05T22:21:43.576Z,1.90
2019-05-05T22:24:16.339Z,2.03
2019-05-05T22:26:45.503Z,2.00
2019-05-05T22:29:17.164Z,1.97
2019-05-05T22:31:44.830Z,1.70
2019-05-05T22:34:14.616Z,2.40
2019-05-05T22:36:44.903Z,1.87
2019-05-05T22:39:16.704Z,1.87
2019-05-05T22:41:45.416Z,2.00
2019-05-05T22:44:14.202Z,2.20
2019-05-05T22:46:42.891Z,2.00
2019-05-05T22:49:11.549Z,2.27
2019-05-05T22:51:40.514Z,2.07
2019-05-05T22:54:09.195Z,1.67
2019-05-05T22:56:38.067Z,2.00
2019-05-05T22:59:06.735Z,1.87
2019-05-05T23:01:35.432Z,1.70
2019-05-05T23:04:14.398Z,2.07
2019-05-05T23:06:44.267Z,1.77
2019-05-05T23:09:14.724Z,1.83
2019-05-05T23:11:44.104Z,1.90
2019-05-05T23:14:28.610Z,1.90
2019-05-05T23:17:16.424Z,1.77
2019-05-05T23:19:50.071Z,2.10
2019-05-05T23:22:56.172Z,1.90
2019-05-05T23:25:30.835Z,2.00
2019-05-05T23:27:59.527Z,1.87
2019-05-05T23:30:39.395Z,1.80
2019-05-05T23:32:58.758Z,2.13
2019-05-05T23:35:27.414Z,1.70
2019-05-05T23:37:56.057Z,2.27
2019-05-05T23:40:25.606Z,1.93
2019-05-05T23:42:54.392Z,1.90
2019-05-05T23:45:24.795Z,2.03
2019-05-05T23:47:54.506Z,2.03
2019-05-05T23:50:23.624Z,2.10
2019-05-05T23:52:54.322Z,1.93
2019-05-05T23:55:23.980Z,2.10
2019-05-05T23:57:54.802Z,2.00
